createdAt,value
2023-04-03T00:00:20.139Z,0.00
2023-04-03T00:01:20.126Z,0.00
2023-04-03T00:02:20.238Z,0.00
2023-04-03T00:03:20.145Z,0.00
2023-04-03T00:04:20.204Z,0.00
2023-04-03T00:05:20.086Z,0.00
2023-04-03T00:06:20.072Z,0.00
2023-04-03T00:07:20.073Z,0.00
2023-04-03T00:08:20.054Z,0.00
2023-04-03T00:09:20.054Z,0.00
2023-04-03T00:10:20.031Z,0.00
2023-04-03T00:11:20.024Z,0.00
2023-04-03T00:12:20.028Z,0.00
2023-04-03T00:13:20.004Z,0.00
2023-04-03T00:14:19.989Z,0.00
2023-04-03T00:15:19.980Z,0.00
2023-04-03T00:16:20.075Z,0.00
2023-04-03T00:17:19.983Z,0.00
2023-04-03T00:18:19.971Z,0.00
2023-04-03T00:19:19.945Z,0.00
2023-04-03T00:20:19.923Z,0.00
2023-04-03T00:21:19.915Z,0.00
2023-04-03T00:22:19.923Z,0.00
2023-04-03T00:23:19.894Z,0.00
2023-04-03T00:24:19.890Z,0.00
2023-04-03T00:25:19.876Z,0.00
2023-04-03T00:26:19.859Z,0.00
2023-04-03T00:27:19.887Z,0.00
2023-04-03T00:28:19.843Z,0.00
2023-04-03T00:29:19.831Z,0.00
2023-04-03T00:30:19.823Z,0.00
2023-04-03T00:31:19.910Z,0.00
2023-04-03T00:32:19.825Z,0.00
2023-04-03T00:33:19.788Z,0.00
2023-04-03T00:34:19.806Z,0.00
2023-04-03T00:35:19.765Z,0.00
2023-04-03T00:36:19.819Z,0.00
2023-04-03T00:37:19.777Z,0.00
2023-04-03T00:38:19.732Z,0.00
2023-04-03T00:39:19.727Z,0.00
2023-04-03T00:40:19.714Z,0.00
2023-04-03T00:41:19.704Z,0.00
2023-04-03T00:42:19.701Z,0.00
2023-04-03T00:43:19.682Z,0.00
2023-04-03T00:44:19.675Z,0.00
2023-04-03T00:45:19.672Z,0.00
2023-04-03T00:46:19.655Z,0.00
2023-04-03T00:47:19.649Z,0.00
2023-04-03T00:48:19.632Z,0.00
2023-04-03T00:49:19.618Z,0.00
2023-04-03T00:50:19.642Z,0.00
2023-04-03T00:51:19.601Z,0.00
2023-04-03T00:52:19.601Z,0.00
2023-04-03T00:53:19.581Z,0.00
2023-04-03T00:54:19.573Z,0.00
2023-04-03T00:55:19.572Z,0.00
2023-04-03T00:56:19.551Z,0.00
2023-04-03T00:57:19.575Z,0.00
2023-04-03T00:58:19.524Z,0.00
2023-04-03T00:59:19.517Z,0.00
2023-04-03T01:00:19.499Z,0.00
2023-04-03T01:01:19.553Z,0.00
2023-04-03T01:02:19.507Z,0.00
2023-04-03T01:03:19.473Z,0.00
2023-04-03T01:04:19.488Z,0.00
2023-04-03T01:05:19.451Z,0.00
2023-04-03T01:06:19.456Z,0.00
2023-04-03T01:07:19.433Z,0.00
2023-04-03T01:08:19.433Z,0.00
2023-04-03T01:09:19.407Z,0.00
2023-04-03T01:10:19.411Z,0.00
2023-04-03T01:11:19.390Z,0.00
2023-04-03T01:12:19.378Z,0.00
2023-04-03T01:13:19.385Z,0.00
2023-04-03T01:14:19.363Z,0.00
2023-04-03T01:15:19.345Z,0.00
2023-04-03T01:16:19.414Z,0.00
2023-04-03T01:17:19.327Z,0.00
2023-04-03T01:18:19.337Z,0.00
2023-04-03T01:19:19.304Z,0.00
2023-04-03T01:20:19.295Z,0.00
2023-04-03T01:21:19.309Z,0.00
2023-04-03T01:22:19.314Z,0.00
2023-04-03T01:23:19.282Z,0.00
2023-04-03T01:24:19.256Z,0.00
2023-04-03T01:25:19.260Z,0.00
2023-04-03T01:26:19.247Z,0.00
2023-04-03T01:27:19.225Z,0.00
2023-04-03T01:28:19.225Z,0.00
2023-04-03T01:29:19.206Z,0.00
2023-04-03T01:30:19.195Z,0.00
2023-04-03T01:31:19.227Z,0.00
2023-04-03T01:32:19.169Z,0.00
2023-04-03T01:33:19.175Z,0.00
2023-04-03T01:34:19.147Z,0.00
2023-04-03T01:35:19.137Z,0.00
2023-04-03T01:36:19.133Z,0.00
2023-04-03T01:37:19.112Z,0.00
2023-04-03T01:38:19.179Z,0.00
2023-04-03T01:39:19.097Z,0.00
2023-04-03T01:40:19.088Z,0.00
2023-04-03T01:41:19.069Z,0.00
2023-04-03T01:42:19.063Z,0.00
2023-04-03T01:43:19.087Z,0.00
2023-04-03T01:44:19.044Z,0.00
2023-04-03T01:45:19.028Z,0.00
2023-04-03T01:46:19.195Z,0.00
2023-04-03T01:47:19.011Z,0.00
2023-04-03T01:48:19.012Z,0.00
2023-04-03T01:49:18.989Z,0.00
2023-04-03T01:50:18.980Z,0.00
2023-04-03T01:51:18.966Z,0.00
2023-04-03T01:52:18.967Z,0.00
2023-04-03T01:53:18.977Z,0.00
2023-04-03T01:54:18.966Z,0.00
2023-04-03T01:55:18.925Z,0.00
2023-04-03T01:56:18.919Z,0.00
2023-04-03T01:57:18.943Z,0.00
2023-04-03T01:58:18.903Z,0.00
2023-04-03T01:59:18.883Z,0.00
2023-04-03T02:00:18.874Z,0.00
2023-04-03T02:01:18.919Z,0.00
2023-04-03T02:02:18.852Z,0.00
2023-04-03T02:03:18.883Z,0.00
2023-04-03T02:04:18.876Z,0.00
2023-04-03T02:05:18.820Z,0.00
2023-04-03T02:06:18.814Z,0.00
2023-04-03T02:07:18.803Z,0.00
2023-04-03T02:08:18.814Z,0.00
2023-04-03T02:09:18.779Z,0.00
2023-04-03T02:10:18.801Z,0.00
2023-04-03T02:11:18.758Z,0.00
2023-04-03T02:12:18.750Z,0.00
2023-04-03T02:13:18.751Z,0.00
2023-04-03T02:14:18.729Z,0.00
2023-04-03T02:15:18.717Z,0.00
2023-04-03T02:16:18.760Z,0.00
2023-04-03T02:17:18.693Z,0.00
2023-04-03T02:18:18.713Z,0.00
2023-04-03T02:19:18.679Z,0.00
2023-04-03T02:20:18.665Z,0.00
2023-04-03T02:21:18.646Z,0.00
2023-04-03T02:22:18.636Z,0.00
2023-04-03T02:23:18.649Z,0.00
2023-04-03T02:24:18.615Z,0.00
2023-04-03T02:25:18.624Z,0.00
2023-04-03T02:26:18.617Z,0.00
2023-04-03T02:27:18.586Z,0.00
2023-04-03T02:28:18.591Z,0.00
2023-04-03T02:29:18.561Z,0.00
2023-04-03T02:30:18.552Z,0.00
2023-04-03T02:31:18.566Z,0.00
2023-04-03T02:32:18.530Z,0.00
2023-04-03T02:33:18.542Z,0.00
2023-04-03T02:34:18.510Z,0.00
2023-04-03T02:35:18.555Z,0.00
2023-04-03T02:36:18.491Z,0.00
2023-04-03T02:37:18.476Z,0.00
2023-04-03T02:38:18.482Z,0.00
2023-04-03T02:39:18.456Z,0.00
2023-04-03T02:40:18.447Z,0.00
2023-04-03T02:41:18.437Z,0.00
2023-04-03T02:42:18.455Z,0.00
2023-04-03T02:43:18.454Z,0.00
2023-04-03T02:44:18.407Z,0.00
2023-04-03T02:45:18.397Z,0.00
2023-04-03T02:46:18.394Z,0.00
2023-04-03T02:47:18.374Z,0.00
2023-04-03T02:48:18.391Z,0.00
2023-04-03T02:49:18.350Z,0.00
2023-04-03T02:50:18.340Z,0.00
2023-04-03T02:51:18.328Z,0.00
2023-04-03T02:52:18.328Z,0.00
2023-04-03T02:53:18.325Z,0.00
2023-04-03T02:54:18.303Z,0.00
2023-04-03T02:55:18.316Z,0.00
2023-04-03T02:56:18.284Z,0.00
2023-04-03T02:57:18.291Z,0.00
2023-04-03T02:58:18.318Z,0.00
2023-04-03T02:59:18.265Z,0.00
2023-04-03T03:00:18.277Z,0.00
2023-04-03T03:01:18.266Z,0.00
2023-04-03T03:02:18.216Z,0.00
2023-04-03T03:03:18.218Z,0.00
2023-04-03T03:04:18.202Z,0.00
2023-04-03T03:05:18.258Z,0.00
2023-04-03T03:06:18.175Z,0.00
2023-04-03T03:07:18.163Z,0.00
2023-04-03T03:08:18.173Z,0.00
2023-04-03T03:09:18.154Z,0.00
2023-04-03T03:10:18.144Z,0.00
2023-04-03T03:11:18.122Z,0.00
2023-04-03T03:12:18.113Z,0.00
2023-04-03T03:13:18.118Z,0.00
2023-04-03T03:14:18.110Z,0.00
2023-04-03T03:15:18.082Z,0.00
2023-04-03T03:16:18.109Z,0.00
2023-04-03T03:17:18.059Z,0.00
2023-04-03T03:18:18.081Z,0.00
2023-04-03T03:19:18.039Z,0.00
2023-04-03T03:20:18.035Z,0.00
2023-04-03T03:21:18.016Z,0.00
2023-04-03T03:22:18.016Z,0.00
2023-04-03T03:23:18.007Z,0.00
2023-04-03T03:24:17.981Z,0.00
2023-04-03T03:25:17.972Z,0.00
2023-04-03T03:26:17.975Z,0.00
2023-04-03T03:27:17.951Z,0.00
2023-04-03T03:28:17.960Z,0.00
2023-04-03T03:29:17.950Z,0.00
2023-04-03T03:30:17.941Z,0.00
2023-04-03T03:31:17.933Z,0.00
2023-04-03T03:32:17.907Z,0.00
2023-04-03T03:33:17.884Z,0.00
2023-04-03T03:34:17.887Z,0.00
2023-04-03T03:35:17.863Z,0.00
2023-04-03T03:36:17.887Z,0.00
2023-04-03T03:37:17.844Z,0.00
2023-04-03T03:38:17.859Z,0.00
2023-04-03T03:39:17.824Z,0.00
2023-04-03T03:40:18.157Z,0.00
2023-04-03T03:41:17.803Z,0.00
2023-04-03T03:42:17.790Z,0.00
2023-04-03T03:43:17.790Z,0.00
2023-04-03T03:44:17.792Z,0.00
2023-04-03T03:45:17.785Z,0.00
2023-04-03T03:46:17.806Z,0.00
2023-04-03T03:47:17.741Z,0.00
2023-04-03T03:48:17.728Z,0.00
2023-04-03T03:49:17.740Z,0.00
2023-04-03T03:50:17.707Z,0.00
2023-04-03T03:51:17.731Z,0.00
2023-04-03T03:52:17.691Z,0.00
2023-04-03T03:53:17.670Z,0.00
2023-04-03T03:54:17.678Z,0.00
2023-04-03T03:55:17.652Z,0.00
2023-04-03T03:56:17.646Z,0.00
2023-04-03T03:57:17.672Z,0.00
2023-04-03T03:58:17.623Z,0.00
2023-04-03T03:59:17.658Z,4.00
2023-04-03T04:00:17.609Z,0.00
2023-04-03T04:01:17.592Z,0.00
2023-04-03T04:02:17.641Z,0.00
2023-04-03T04:03:17.630Z,0.00
2023-04-03T04:04:17.646Z,4.00
2023-04-03T04:05:17.560Z,0.00
2023-04-03T04:06:17.545Z,4.00
2023-04-03T04:07:17.534Z,0.00
2023-04-03T04:08:17.536Z,4.00
2023-04-03T04:09:17.523Z,4.00
2023-04-03T04:10:17.506Z,4.00
2023-04-03T04:11:17.501Z,4.00
2023-04-03T04:12:17.494Z,4.00
2023-04-03T04:13:17.482Z,4.00
2023-04-03T04:14:17.469Z,8.00
2023-04-03T04:15:17.443Z,12.00
2023-04-03T04:16:17.469Z,12.00
2023-04-03T04:17:17.424Z,16.00
2023-04-03T04:18:17.434Z,16.00
2023-04-03T04:19:17.434Z,20.00
2023-04-03T04:20:17.397Z,20.00
2023-04-03T04:21:17.384Z,24.00
2023-04-03T04:22:17.374Z,28.00
2023-04-03T04:23:17.360Z,32.00
2023-04-03T04:24:17.371Z,40.00
2023-04-03T04:25:17.368Z,40.00
2023-04-03T04:26:17.364Z,48.00
2023-04-03T04:27:17.321Z,52.00
2023-04-03T04:28:17.329Z,60.00
2023-04-03T04:29:17.313Z,72.00
2023-04-03T04:30:17.299Z,80.00
2023-04-03T04:31:17.326Z,84.00
2023-04-03T04:32:17.264Z,96.00
2023-04-03T04:33:17.276Z,108.00
2023-04-03T04:34:17.310Z,120.00
2023-04-03T04:35:17.313Z,132.00
2023-04-03T04:36:17.288Z,148.00
2023-04-03T04:37:17.212Z,164.00
2023-04-03T04:38:17.211Z,176.00
2023-04-03T04:39:17.198Z,196.00
2023-04-03T04:40:17.261Z,212.00
2023-04-03T04:41:17.167Z,232.00
2023-04-03T04:42:17.914Z,252.00
2023-04-03T04:43:17.149Z,276.00
2023-04-03T04:44:17.151Z,300.00
2023-04-03T04:45:17.131Z,320.00
2023-04-03T04:46:17.209Z,348.00
2023-04-03T04:47:17.123Z,372.00
2023-04-03T04:48:17.102Z,400.00
2023-04-03T04:49:17.099Z,432.00
2023-04-03T04:50:17.122Z,468.00
2023-04-03T04:51:17.064Z,512.00
2023-04-03T04:52:17.054Z,544.00
2023-04-03T04:53:17.061Z,572.00
2023-04-03T04:54:17.044Z,604.00
2023-04-03T04:55:17.027Z,644.00
2023-04-03T04:56:17.010Z,664.00
2023-04-03T04:57:17.075Z,688.00
2023-04-03T04:58:16.994Z,724.00
2023-04-03T04:59:16.989Z,768.00
2023-04-03T05:00:16.973Z,812.00
2023-04-03T05:01:16.985Z,852.00
2023-04-03T05:02:16.948Z,920.00
2023-04-03T05:03:16.943Z,956.00
2023-04-03T05:04:17.000Z,992.00
2023-04-03T05:05:17.019Z,1060.00
2023-04-03T05:06:16.926Z,1112.00
2023-04-03T05:07:16.897Z,1144.00
2023-04-03T05:08:16.889Z,1196.00
2023-04-03T05:09:16.883Z,1232.00
2023-04-03T05:10:16.878Z,1284.00
2023-04-03T05:11:16.854Z,1332.00
2023-04-03T05:12:16.847Z,1384.00
2023-04-03T05:13:16.858Z,1392.00
2023-04-03T05:14:16.834Z,1344.00
2023-04-03T05:15:16.819Z,1424.00
2023-04-03T05:16:16.821Z,1512.00
2023-04-03T05:17:16.792Z,1552.00
2023-04-03T05:18:16.800Z,1620.00
2023-04-03T05:19:16.792Z,1620.00
2023-04-03T05:20:16.761Z,1648.00
2023-04-03T05:21:16.752Z,1764.00
2023-04-03T05:22:16.757Z,1884.00
2023-04-03T05:23:16.730Z,1844.00
2023-04-03T05:24:16.730Z,1792.00
2023-04-03T05:25:16.710Z,1908.00
2023-04-03T05:26:16.699Z,2000.00
2023-04-03T05:27:16.692Z,1980.00
2023-04-03T05:28:16.676Z,1956.00
2023-04-03T05:29:16.694Z,2056.00
2023-04-03T05:30:16.666Z,2188.00
2023-04-03T05:31:16.679Z,2236.00
2023-04-03T05:32:16.633Z,2300.00
2023-04-03T05:33:16.622Z,2292.00
2023-04-03T05:34:16.622Z,2220.00
2023-04-03T05:35:16.614Z,2180.00
2023-04-03T05:36:16.608Z,2284.00
2023-04-03T05:37:16.576Z,2444.00
2023-04-03T05:38:16.594Z,2468.00
2023-04-03T05:39:16.580Z,2468.00
2023-04-03T05:40:18.580Z,2540.00
2023-04-03T05:41:16.559Z,2612.00
2023-04-03T05:42:16.526Z,2676.00
2023-04-03T05:43:16.528Z,2744.00
2023-04-03T05:44:16.515Z,3080.00
2023-04-03T05:45:16.490Z,3316.00
2023-04-03T05:46:16.615Z,3552.00
2023-04-03T05:47:16.474Z,3668.00
2023-04-03T05:48:16.458Z,3856.00
2023-04-03T05:49:16.472Z,4120.00
2023-04-03T05:50:16.433Z,4612.00
2023-04-03T05:51:16.431Z,4756.00
2023-04-03T05:52:16.421Z,6024.00
2023-04-03T05:53:16.404Z,8168.00
2023-04-03T05:54:16.446Z,10176.00
2023-04-03T05:55:16.392Z,14816.00
2023-04-03T05:56:16.368Z,19744.00
2023-04-03T05:57:16.508Z,17920.00
2023-04-03T05:58:16.350Z,10148.00
2023-04-03T05:59:16.363Z,7188.00
2023-04-03T06:00:16.327Z,8444.00
2023-04-03T06:01:16.322Z,10028.00
2023-04-03T06:02:16.311Z,9432.00
2023-04-03T06:03:16.393Z,11428.00
2023-04-03T06:04:16.527Z,12844.00
2023-04-03T06:05:16.279Z,10800.00
2023-04-03T06:06:16.262Z,9636.00
2023-04-03T06:07:16.255Z,10460.00
2023-04-03T06:08:16.244Z,9656.00
2023-04-03T06:09:16.248Z,8552.00
2023-04-03T06:10:16.247Z,8172.00
2023-04-03T06:11:16.211Z,7124.00
2023-04-03T06:12:16.198Z,6152.00
2023-04-03T06:13:16.218Z,5392.00
2023-04-03T06:14:16.211Z,4960.00
2023-04-03T06:15:16.170Z,5060.00
2023-04-03T06:16:16.153Z,5472.00
2023-04-03T06:17:16.355Z,5796.00
2023-04-03T06:18:16.134Z,7120.00
2023-04-03T06:19:16.142Z,7756.00
2023-04-03T06:20:16.118Z,8468.00
2023-04-03T06:21:16.104Z,9336.00
2023-04-03T06:22:16.088Z,9152.00
2023-04-03T06:23:16.095Z,10192.00
2023-04-03T06:24:16.107Z,10348.00
2023-04-03T06:25:16.063Z,10020.00
2023-04-03T06:26:16.072Z,10528.00
2023-04-03T06:27:16.051Z,10464.00
2023-04-03T06:28:16.028Z,10172.00
2023-04-03T06:29:16.035Z,10196.00
2023-04-03T06:30:16.105Z,10220.00
2023-04-03T06:31:16.081Z,10788.00
2023-04-03T06:32:15.995Z,10420.00
2023-04-03T06:33:15.974Z,9312.00
2023-04-03T06:34:15.963Z,8968.00
2023-04-03T06:35:16.042Z,7524.00
2023-04-03T06:36:15.962Z,7564.00
2023-04-03T06:37:15.927Z,7204.00
2023-04-03T06:38:15.923Z,7940.00
2023-04-03T06:39:15.907Z,9676.00
2023-04-03T06:40:15.929Z,9496.00
2023-04-03T06:41:15.884Z,8272.00
2023-04-03T06:42:15.896Z,8076.00
2023-04-03T06:43:15.866Z,8196.00
2023-04-03T06:44:15.852Z,11296.00
2023-04-03T06:45:15.871Z,8568.00
2023-04-03T06:46:15.861Z,7008.00
2023-04-03T06:47:15.820Z,9804.00
2023-04-03T06:48:15.840Z,11104.00
2023-04-03T06:49:15.797Z,10080.00
2023-04-03T06:50:15.851Z,11424.00
2023-04-03T06:51:15.792Z,12796.00
2023-04-03T06:52:15.767Z,11092.00
2023-04-03T06:53:15.761Z,13248.00
2023-04-03T06:54:15.748Z,17408.00
2023-04-03T06:55:15.755Z,21152.00
2023-04-03T06:56:15.723Z,20096.00
2023-04-03T06:57:15.725Z,19232.00
2023-04-03T06:58:15.721Z,18720.00
2023-04-03T06:59:15.911Z,20512.00
2023-04-03T07:00:15.766Z,22208.00
2023-04-03T07:01:15.745Z,24384.00
2023-04-03T07:02:15.654Z,24576.00
2023-04-03T07:03:15.645Z,24544.00
2023-04-03T07:04:15.680Z,23744.00
2023-04-03T07:05:15.640Z,24448.00
2023-04-03T07:06:15.636Z,21312.00
2023-04-03T07:07:23.567Z,21216.00
2023-04-03T07:08:15.598Z,19136.00
2023-04-03T07:09:15.585Z,19008.00
2023-04-03T07:10:15.622Z,18208.00
2023-04-03T07:11:15.563Z,17088.00
2023-04-03T07:12:15.669Z,19808.00
2023-04-03T07:13:15.545Z,21952.00
2023-04-03T07:14:15.556Z,31680.00
2023-04-03T07:15:15.734Z,27040.00
2023-04-03T07:16:15.556Z,28640.00
2023-04-03T07:17:15.593Z,30656.00
2023-04-03T07:18:15.495Z,6760.00
2023-04-03T07:19:15.486Z,13596.00
2023-04-03T07:20:15.481Z,13036.00
2023-04-03T07:21:15.455Z,35232.00
2023-04-03T07:22:15.447Z,34656.00
2023-04-03T07:23:15.441Z,21888.00
2023-04-03T07:24:16.754Z,5324.00
2023-04-03T07:25:15.428Z,36768.00
2023-04-03T07:26:15.404Z,35680.00
2023-04-03T07:27:15.395Z,35744.00
2023-04-03T07:28:15.384Z,36576.00
2023-04-03T07:29:16.069Z,32256.00
2023-04-03T07:30:15.410Z,7964.00
2023-04-03T07:31:15.366Z,10112.00
2023-04-03T07:32:15.346Z,8684.00
2023-04-03T07:33:15.337Z,8396.00
2023-04-03T07:34:15.337Z,41664.00
2023-04-03T07:35:15.342Z,24928.00
2023-04-03T07:36:15.340Z,19200.00
2023-04-03T07:37:15.286Z,6936.00
2023-04-03T07:38:15.283Z,8280.00
2023-04-03T07:39:15.277Z,7196.00
2023-04-03T07:40:15.283Z,6600.00
2023-04-03T07:41:15.264Z,39712.00
2023-04-03T07:42:15.238Z,38816.00
2023-04-03T07:43:15.241Z,10368.00
2023-04-03T07:44:15.211Z,8068.00
2023-04-03T07:45:15.231Z,6880.00
2023-04-03T07:46:15.356Z,8264.00
2023-04-03T07:47:15.193Z,12732.00
2023-04-03T07:48:15.177Z,10276.00
2023-04-03T07:49:15.187Z,18240.00
2023-04-03T07:50:15.164Z,41536.00
2023-04-03T07:51:15.146Z,43616.00
2023-04-03T07:52:15.127Z,9304.00
2023-04-03T07:53:15.123Z,13588.00
2023-04-03T07:54:15.110Z,15092.00
2023-04-03T07:55:15.144Z,17664.00
2023-04-03T07:56:15.088Z,12776.00
2023-04-03T07:57:15.100Z,17632.00
2023-04-03T07:58:15.064Z,14564.00
2023-04-03T07:59:15.058Z,10784.00
2023-04-03T08:00:15.070Z,9204.00
2023-04-03T08:01:15.088Z,10340.00
2023-04-03T08:02:15.043Z,9944.00
2023-04-03T08:03:15.138Z,12880.00
2023-04-03T08:04:15.265Z,15864.00
2023-04-03T08:05:15.019Z,8952.00
2023-04-03T08:06:16.422Z,9240.00
2023-04-03T08:07:14.961Z,7540.00
2023-04-03T08:08:14.975Z,7112.00
2023-04-03T08:09:14.947Z,5048.00
2023-04-03T08:10:14.949Z,4244.00
2023-04-03T08:11:14.928Z,4036.00
2023-04-03T08:12:14.911Z,4148.00
2023-04-03T08:13:14.913Z,13332.00
2023-04-03T08:14:14.886Z,5720.00
2023-04-03T08:15:14.904Z,5604.00
2023-04-03T08:16:14.895Z,5532.00
2023-04-03T08:17:14.852Z,5472.00
2023-04-03T08:18:14.907Z,5208.00
2023-04-03T08:19:22.339Z,4856.00
2023-04-03T08:20:15.845Z,4512.00
2023-04-03T08:21:14.819Z,5932.00
2023-04-03T08:22:14.799Z,11248.00
2023-04-03T08:23:14.790Z,6784.00
2023-04-03T08:24:14.782Z,6048.00
2023-04-03T08:25:14.800Z,5652.00
2023-04-03T08:26:14.755Z,5208.00
2023-04-03T08:27:14.745Z,5400.00
2023-04-03T08:28:14.739Z,5520.00
2023-04-03T08:29:14.733Z,6216.00
2023-04-03T08:30:14.738Z,6104.00
2023-04-03T08:31:14.804Z,5740.00
2023-04-03T08:32:14.745Z,6152.00
2023-04-03T08:33:14.814Z,5204.00
2023-04-03T08:34:14.769Z,4236.00
2023-04-03T08:35:14.691Z,3816.00
2023-04-03T08:36:14.682Z,3592.00
2023-04-03T08:37:14.644Z,3916.00
2023-04-03T08:38:14.697Z,4876.00
2023-04-03T08:39:14.623Z,5088.00
2023-04-03T08:40:14.626Z,4828.00
2023-04-03T08:41:14.632Z,4524.00
2023-04-03T08:42:14.584Z,4836.00
2023-04-03T08:43:14.574Z,4800.00
2023-04-03T08:44:14.569Z,4492.00
2023-04-03T08:45:14.596Z,4360.00
2023-04-03T08:46:14.591Z,4328.00
2023-04-03T08:47:14.543Z,4240.00
2023-04-03T08:48:14.561Z,4132.00
2023-04-03T08:49:14.553Z,4056.00
2023-04-03T08:50:14.651Z,3968.00
2023-04-03T08:51:14.498Z,3916.00
2023-04-03T08:52:14.477Z,3896.00
2023-04-03T08:53:14.471Z,3840.00
2023-04-03T08:54:14.461Z,3824.00
2023-04-03T08:55:14.465Z,3924.00
2023-04-03T08:56:14.449Z,4048.00
2023-04-03T08:57:14.464Z,4000.00
2023-04-03T08:58:14.414Z,4032.00
2023-04-03T08:59:14.403Z,4180.00
2023-04-03T09:00:14.407Z,4396.00
2023-04-03T09:01:14.505Z,4540.00
2023-04-03T09:02:14.370Z,4652.00
2023-04-03T09:03:14.469Z,4888.00
2023-04-03T09:04:14.440Z,5572.00
2023-04-03T09:05:14.370Z,6364.00
2023-04-03T09:06:14.449Z,6312.00
2023-04-03T09:07:14.323Z,6652.00
2023-04-03T09:08:14.303Z,7352.00
2023-04-03T09:09:14.310Z,6612.00
2023-04-03T09:10:14.303Z,6172.00
2023-04-03T09:11:14.274Z,6344.00
2023-04-03T09:12:14.257Z,12480.00
2023-04-03T09:13:14.263Z,6644.00
2023-04-03T09:14:14.265Z,6160.00
2023-04-03T09:15:14.356Z,6232.00
2023-04-03T09:16:14.368Z,7396.00
2023-04-03T09:17:14.335Z,7848.00
2023-04-03T09:18:14.196Z,6736.00
2023-04-03T09:19:14.267Z,6764.00
2023-04-03T09:20:14.191Z,59584.00
2023-04-03T09:21:14.167Z,14936.00
2023-04-03T09:22:14.186Z,58496.00
2023-04-03T09:23:14.148Z,8900.00
2023-04-03T09:24:14.143Z,8084.00
2023-04-03T09:25:14.189Z,58304.00
2023-04-03T09:26:14.113Z,59104.00
2023-04-03T09:27:14.112Z,13304.00
2023-04-03T09:28:14.102Z,12116.00
2023-04-03T09:29:14.081Z,11132.00
2023-04-03T09:30:14.095Z,14008.00
2023-04-03T09:31:14.106Z,8144.00
2023-04-03T09:32:14.040Z,8200.00
2023-04-03T09:33:14.068Z,11012.00
2023-04-03T09:34:14.017Z,58144.00
2023-04-03T09:35:20.741Z,52992.00
2023-04-03T09:36:15.022Z,65792.00
2023-04-03T09:37:13.992Z,10256.00
2023-04-03T09:38:14.208Z,9336.00
2023-04-03T09:39:13.972Z,11084.00
2023-04-03T09:40:13.993Z,40032.00
2023-04-03T09:41:13.945Z,68736.00
2023-04-03T09:42:13.934Z,70080.00
2023-04-03T09:43:13.921Z,67616.00
2023-04-03T09:44:13.911Z,59520.00
2023-04-03T09:45:13.920Z,9048.00
2023-04-03T09:46:13.928Z,7944.00
2023-04-03T09:47:13.938Z,34144.00
2023-04-03T09:48:16.140Z,8984.00
2023-04-03T09:49:13.865Z,10944.00
2023-04-03T09:50:14.001Z,8656.00
2023-04-03T09:51:13.836Z,9404.00
2023-04-03T09:52:13.825Z,11420.00
2023-04-03T09:53:13.814Z,10872.00
2023-04-03T09:54:13.925Z,7456.00
2023-04-03T09:55:13.812Z,7588.00
2023-04-03T09:56:13.813Z,7600.00
2023-04-03T09:57:13.810Z,7968.00
2023-04-03T09:58:13.763Z,7588.00
2023-04-03T09:59:13.748Z,7592.00
2023-04-03T10:00:13.739Z,7616.00
2023-04-03T10:01:13.801Z,7448.00
2023-04-03T10:02:13.725Z,7400.00
2023-04-03T10:03:13.746Z,7268.00
2023-04-03T10:04:13.730Z,6804.00
2023-04-03T10:05:13.734Z,8684.00
2023-04-03T10:06:13.737Z,7528.00
2023-04-03T10:07:13.667Z,6552.00
2023-04-03T10:08:13.651Z,6648.00
2023-04-03T10:09:13.702Z,5356.00
2023-04-03T10:10:13.758Z,4852.00
2023-04-03T10:11:13.639Z,4968.00
2023-04-03T10:12:13.609Z,5212.00
2023-04-03T10:13:20.144Z,5244.00
2023-04-03T10:14:14.593Z,5608.00
2023-04-03T10:15:13.573Z,6256.00
2023-04-03T10:16:13.601Z,6904.00
2023-04-03T10:17:13.680Z,7788.00
2023-04-03T10:18:24.065Z,8528.00
2023-04-03T10:19:14.528Z,9792.00
2023-04-03T10:20:13.543Z,8264.00
2023-04-03T10:21:26.589Z,6976.00
2023-04-03T10:22:14.502Z,5476.00
2023-04-03T10:23:13.490Z,4960.00
2023-04-03T10:24:13.481Z,4840.00
2023-04-03T10:25:13.473Z,4880.00
2023-04-03T10:26:14.700Z,4884.00
2023-04-03T10:27:13.447Z,5016.00
2023-04-03T10:28:13.432Z,5128.00
2023-04-03T10:29:13.441Z,5180.00
2023-04-03T10:30:13.410Z,5464.00
2023-04-03T10:31:13.427Z,5608.00
2023-04-03T10:32:13.466Z,5768.00
2023-04-03T10:33:13.388Z,5752.00
2023-04-03T10:34:13.372Z,5532.00
2023-04-03T10:35:13.353Z,5352.00
2023-04-03T10:36:13.382Z,5316.00
2023-04-03T10:37:13.332Z,5376.00
2023-04-03T10:38:13.320Z,5368.00
2023-04-03T10:39:13.311Z,5520.00
2023-04-03T10:40:13.305Z,5444.00
2023-04-03T10:41:14.075Z,5412.00
2023-04-03T10:42:17.332Z,5496.00
2023-04-03T10:43:13.262Z,5956.00
2023-04-03T10:44:13.253Z,6556.00
2023-04-03T10:45:13.251Z,6880.00
2023-04-03T10:46:13.288Z,7088.00
2023-04-03T10:47:13.220Z,7256.00
2023-04-03T10:48:13.249Z,8124.00
2023-04-03T10:49:13.200Z,8628.00
2023-04-03T10:50:13.193Z,6412.00
2023-04-03T10:51:13.201Z,6056.00
2023-04-03T10:52:13.168Z,5608.00
2023-04-03T10:53:13.159Z,5456.00
2023-04-03T10:54:13.190Z,5748.00
2023-04-03T10:55:13.159Z,5276.00
2023-04-03T10:56:13.146Z,4340.00
2023-04-03T10:57:13.993Z,4136.00
2023-04-03T10:58:13.871Z,4164.00
2023-04-03T10:59:13.173Z,4448.00
2023-04-03T11:00:13.103Z,4704.00
2023-04-03T11:01:13.106Z,4480.00
2023-04-03T11:02:13.088Z,4456.00
2023-04-03T11:03:13.102Z,4988.00
2023-04-03T11:04:13.133Z,5644.00
2023-04-03T11:05:13.031Z,6208.00
2023-04-03T11:06:13.051Z,6696.00
2023-04-03T11:07:13.014Z,6448.00
2023-04-03T11:08:13.059Z,6316.00
2023-04-03T11:09:12.990Z,5984.00
2023-04-03T11:10:14.634Z,5624.00
2023-04-03T11:11:12.982Z,5412.00
2023-04-03T11:12:12.957Z,5368.00
2023-04-03T11:13:12.945Z,5300.00
2023-04-03T11:14:13.056Z,5100.00
2023-04-03T11:15:12.932Z,4796.00
2023-04-03T11:16:12.971Z,4404.00
2023-04-03T11:17:12.902Z,4112.00
2023-04-03T11:18:12.934Z,3916.00
2023-04-03T11:19:12.883Z,3760.00
2023-04-03T11:20:12.887Z,3692.00
2023-04-03T11:21:12.877Z,3684.00
2023-04-03T11:22:12.850Z,3728.00
2023-04-03T11:23:12.837Z,4032.00
2023-04-03T11:24:12.858Z,4540.00
2023-04-03T11:25:12.820Z,4920.00
2023-04-03T11:26:12.827Z,5052.00
2023-04-03T11:27:12.795Z,5252.00
2023-04-03T11:28:12.784Z,5608.00
2023-04-03T11:29:15.873Z,6108.00
2023-04-03T11:30:13.969Z,6448.00
2023-04-03T11:31:12.924Z,6548.00
2023-04-03T11:32:12.755Z,6676.00
2023-04-03T11:33:12.809Z,6616.00
2023-04-03T11:34:12.723Z,6232.00
2023-04-03T11:35:12.723Z,6168.00
2023-04-03T11:36:25.005Z,6428.00
2023-04-03T11:37:13.733Z,6792.00
2023-04-03T11:38:12.676Z,5988.00
2023-04-03T11:39:12.672Z,5084.00
2023-04-03T11:40:12.669Z,4984.00
2023-04-03T11:41:12.661Z,4976.00
2023-04-03T11:42:13.336Z,5088.00
2023-04-03T11:43:12.620Z,5108.00
2023-04-03T11:44:12.616Z,5104.00
2023-04-03T11:45:12.604Z,4960.00
2023-04-03T11:46:12.825Z,4700.00
2023-04-03T11:47:12.582Z,4460.00
2023-04-03T11:48:23.897Z,4456.00
2023-04-03T11:49:13.561Z,4648.00
2023-04-03T11:50:12.604Z,5016.00
2023-04-03T11:51:12.549Z,5220.00
2023-04-03T11:52:12.526Z,5416.00
2023-04-03T11:53:12.521Z,5416.00
2023-04-03T11:54:12.506Z,5496.00
2023-04-03T11:55:12.500Z,5592.00
2023-04-03T11:56:12.509Z,5628.00
2023-04-03T11:57:12.564Z,5768.00
2023-04-03T11:58:12.461Z,6116.00
2023-04-03T11:59:12.470Z,6448.00
2023-04-03T12:00:12.490Z,6848.00
2023-04-03T12:01:12.438Z,6872.00
2023-04-03T12:02:12.591Z,6584.00
2023-04-03T12:03:12.500Z,6172.00
2023-04-03T12:04:12.530Z,5628.00
2023-04-03T12:05:12.384Z,5192.00
2023-04-03T12:06:12.396Z,4668.00
2023-04-03T12:07:12.361Z,4120.00
2023-04-03T12:08:12.354Z,3756.00
2023-04-03T12:09:12.341Z,3640.00
2023-04-03T12:10:18.228Z,3688.00
2023-04-03T12:11:13.347Z,3624.00
2023-04-03T12:12:12.355Z,3664.00
2023-04-03T12:13:12.301Z,3692.00
2023-04-03T12:14:12.300Z,3868.00
2023-04-03T12:15:12.279Z,4176.00
2023-04-03T12:16:12.290Z,4640.00
2023-04-03T12:17:12.357Z,5152.00
2023-04-03T12:18:12.448Z,5660.00
2023-04-03T12:19:12.264Z,6080.00
2023-04-03T12:20:12.231Z,6300.00
2023-04-03T12:21:12.238Z,6352.00
2023-04-03T12:22:12.196Z,6020.00
2023-04-03T12:23:12.192Z,5488.00
2023-04-03T12:24:12.186Z,5220.00
2023-04-03T12:25:12.178Z,4928.00
2023-04-03T12:26:12.178Z,4736.00
2023-04-03T12:27:12.162Z,4624.00